• NOTAM LFIP

     Durée permanente depuis 12/05/22 10:24Z
    E) ACTIVITE AEROMODELISME NR 9067 'PEYRESOURDE' SUPPRIMEE F) SFC

    NOTAM LFCB

    Aucun NOTAM

    NOTAM LFBT

     13/05 12:00Z - 08/10/22 11:59Z
    E) PROTECTION DU SANCTUAIRE DE 'LOURDES' - SUP AIP 106/22 : OBJET : CREATION D'UNE ZONE REGLEMENTEE TEMPORAIRE. CE SUP AIP EST DISPONIBLE SUR WWW.SIA.AVIATION-CIVILE.GOUV.FR

     13/05 11:30Z - 29/10/22 08:00Z
    E) DOUANE ET POLICE: 0500-2000 PN INCLUANT DETAILS DES PASSAGERS ET EQUIPAGE (24HR EN SEMAINE, 48HR WEEK END ET 26 MAI, 14 JUILLET, 15 AOUT) AUPRES DE : -BSE-TARBES(AT)DOUANE.FINANCES.GOUV.FR -DIV-TOULOUSE2(AT)DOUANE.FINANCES.GOUV.FR -CODT-BORDEAUX(AT)DOUANE.FINANCES.GOUV.FR EN DEHORS DE CES HORAIRES : PN SELON MODALITES CI-DESSUS (SAUF DEROUTEMENT). PN POUR VOLS HORS UNION EUROPEENNE (ISLANDE, LIECHTENSTEIN, NORVEGE, SUISSE) SELON MODALITES CI-DESSUS

     01/07 01:52Z - 31/12/22 11:59Z
    E) HORAIRES ET NIVEAUX RFFS : - NIVEAU 7 : H24 - NIVEAU 9 SUR PN 24HR PAR TEL : +33 (0)5 62 32 96 00 CONTACT OPS :0330-2100 MAIL : OPS.TARBES-LOURDES(AT)AEROPORTS-LAREGION.FR











  • PHOTOS SATELLITE

CARTE TEMSI

CARTE WINTEM

  • Vent à 5000ft

  • Base des nuages

  • ANIMATION RADAR

  • METAR/TAF LFBT (TARBES-LOURDES-PYRENÉES)

    LFBT 012330Z AUTO 16002KT CAVOK 13/12 Q1021 NOSIG

    TAF AMD LFBT 300007Z 3000/3024 30005KT 9999 OVC015 TEMPO 3000/3012 3500 -RA BKN004 BKN009 BECMG 3012/3014 BKN035 TEMPO 3018/3021 -SHRA SCT025TCU BKN030

    METAR/TAF LFBP (PAU-PYRÉNÉES)

    LFBP 300400Z AUTO VRB03KT 5000 DZ BR FEW005 OVC012 14/14 Q1015 TEMPO NSW BKN004 BKN010

    TAF AMD LFBP 300006Z 3000/3024 25005KT 9999 SCT020 OVC030 TEMPO 3000/3018 3500 -RA BKN004 BKN010 BECMG 3019/3021 VRB03KT CAVOK

    METAR/TAF LFBO (TOULOUSE / Blagnac)

    LFBO 020400Z AUTO VRB02KT CAVOK 13/11 Q1020 NOSIG

    TAF LFBO 292300Z 3000/0106 30010KT 9999 SCT020 BKN035 PROB30 TEMPO 3003/3010 BKN013 BKN030 TEMPO 3019/3022 -SHRA BKN020 SCT030TCU BECMG 3022/3024 VRB03KT PROB40 0102/0106 4000 BR BKN013

RESERVATION

  • COMM' CLUB

    LFIP - Etat de la piste (informatif)

    Nous vous présentons ci-dessous l'état de l'altiport (piste et aire de manœuvre, parkings), à titre purement INFORMATIF

    • Image de la piste ci-dessous, en date du  :

     INFORMATION PISTE : 09/27 DENNEIGEE 

  • COMM' Comité Régional Aéronautique

    Concours passeport BIA - Z'elles

    Renseignez-vous auprès du secrétariat de votre aéroclub pour participer aux concours 

                                      passeport BIA et les z'elles d'Occitanie (féminines) 

       ou consultez la rubrique "Nos Actions" du site cra-occitanie.fr


    •                                  Date limite d'envoi des dossiers: 31 août 2022 !

    AGENDA CRA Occitanie

     

    du 01 au 03 Juillet 2022                   Championnat de France de pilotage de précison à Graulhet


    du 20 au 27 Août 2022                     Championnat du Monde de pilotage de précison à Albi


    17 septembre 2022           Rallye aérien à Auch -  infos & inscriptions sur sports.ffa-aero.fr


    automne 2022                        Rallye aérien à Bédarieux - infos & inscriptions sur sports.ffa-aero.fr